Terminal Aerodrome Forecast
Issued by NWS Newport/Morehead City, NC

Home | Current Version | Previous Version | Graphics & Text | Print | Product List | Glossary On
Versions: 1 2 3 4 5 6 7 8 9 10 11 12 13 14 15 16 17 18 19 20
000
FTUS42 KMHX 212336
TAFEWN
TAF
KEWN 212336Z 2200/2224 VRB04KT P6SM VCSH SCT015 OVC050
     FM220300 16005KT 5SM -SHRA VCTS OVC007CB
     FM220600 21007KT 3SM BR OVC007
     FM220900 23007KT 1/2SM FG OVC002
     FM221300 23005KT 3SM SHRA VCTS OVC002CB
     FM221600 17009KT P6SM SHRA VCTS OVC015CB=

USA.gov is the U.S. government's official web portal to all federal, state and local government web resources and services.